Time;durP1;ratioP1;P1;durP2;ratioP2;P2;SDS_P1;SDS_P2;PMS_P1;PMS_P2;Temp;Humidity;BMP_temperature;BMP_pressure;BME280_temperature;BME280_humidity;BME280_pressure;Samples;Min_cycle;Max_cycle;Signal;HPM_P1;HPM_P2
2022/12/15 00:39:17;;;;;;;42.33;21.00;;;8.30;55.00;;;;;;5074039;28;20075;-89
2022/12/15 00:41:43;;;;;;;35.53;20.17;;;8.70;54.30;;;;;;5066053;28;20028;-87
2022/12/15 00:44:09;;;;;;;36.53;20.10;;;9.00;53.60;;;;;;5057070;28;20086;-89
2022/12/15 01:22:09;;;;;;;37.00;19.83;;;9.60;52.90;;;;;;5090365;28;20514;-82
2022/12/15 01:24:35;;;;;;;34.20;19.77;;;9.70;52.40;;;;;;5056169;28;20029;-82
2022/12/15 01:27:01;;;;;;;37.20;20.25;;;9.70;52.10;;;;;;5055468;28;20024;-82
2022/12/15 01:29:26;;;;;;;38.45;21.90;;;9.60;52.60;;;;;;5055461;28;20024;-85
2022/12/15 01:31:52;;;;;;;38.35;21.45;;;9.60;52.70;;;;;;5073164;28;20024;-87
2022/12/15 01:34:18;;;;;;;38.30;20.88;;;9.70;52.50;;;;;;5073374;28;20040;-87
2022/12/15 01:36:45;;;;;;;39.33;22.65;;;9.70;52.60;;;;;;5055594;28;20078;-81
2022/12/15 01:39:11;;;;;;;41.00;21.60;;;9.70;52.60;;;;;;5055608;28;20058;-81
2022/12/15 01:41:37;;;;;;;44.17;21.95;;;9.80;52.70;;;;;;5055715;28;20052;-82
2022/12/15 01:44:21;;;;;;;40.85;21.00;;;9.80;52.50;;;;;;5055383;28;20060;-82
2022/12/15 01:46:55;;;;;;;41.25;21.27;;;9.60;52.80;;;;;;5055583;28;20025;-80
2022/12/15 01:49:25;;;;;;;37.28;22.00;;;9.70;52.90;;;;;;5056006;28;20021;-86
2022/12/15 01:51:57;;;;;;;37.78;20.45;;;9.70;53.00;;;;;;5055745;28;20037;-87
2022/12/15 01:55:07;;;;;;;39.00;22.02;;;9.60;52.70;;;;;;5091321;27;20371;-85
2022/12/15 01:57:35;;;;;;;41.28;22.52;;;9.40;53.50;;;;;;5091078;28;20024;-87
2022/12/15 02:00:05;;;;;;;47.15;23.20;;;9.40;53.80;;;;;;5089863;28;20024;-80
2022/12/15 02:02:32;;;;;;;39.33;22.52;;;9.30;54.00;;;;;;5089343;28;20017;-80
2022/12/15 02:04:59;;;;;;;39.40;21.50;;;9.30;54.30;;;;;;5084304;28;20471;-84
2022/12/15 02:07:26;;;;;;;39.83;21.33;;;9.30;54.20;;;;;;5070019;28;20028;-85
2022/12/15 02:09:54;;;;;;;40.70;22.77;;;9.30;54.30;;;;;;5069460;28;20028;-82
2022/12/15 02:12:26;;;;;;;42.22;23.38;;;9.40;53.90;;;;;;5072221;28;20032;-85
2022/12/15 02:15:18;;;;;;;40.65;22.27;;;9.40;53.60;;;;;;5089167;28;20055;-84
2022/12/15 02:18:10;;;;;;;41.22;24.13;;;9.40;53.50;;;;;;5090641;28;20548;-80
2022/12/15 02:20:45;;;;;;;38.15;22.05;;;9.30;54.00;;;;;;5069144;28;20452;-86
2022/12/15 02:23:10;;;;;;;40.83;23.63;;;9.30;54.10;;;;;;5065016;28;20017;-80
2022/12/15 02:26:11;;;;;;;43.03;24.05;;;9.40;54.20;;;;;;5082700;28;20026;-80
2022/12/15 02:28:55;;;;;;;45.65;24.30;;;9.30;54.20;;;;;;5069632;28;20044;-82
2022/12/15 02:31:49;;;;;;;43.75;23.42;;;9.30;54.30;;;;;;5069223;28;20027;-85
2022/12/15 02:34:39;;;;;;;42.05;23.55;;;9.40;54.10;;;;;;5069374;28;20045;-84
2022/12/15 02:37:11;;;;;;;47.55;24.33;;;9.40;54.10;;;;;;5069518;28;20045;-87
2022/12/15 02:39:37;;;;;;;42.90;24.23;;;9.50;54.10;;;;;;5068896;28;20408;-83
2022/12/15 02:42:03;;;;;;;44.70;24.13;;;9.50;54.20;;;;;;5064667;28;20034;-82
2022/12/15 02:44:43;;;;;;;43.58;22.42;;;9.50;54.00;;;;;;5069818;28;20427;-82
2022/12/15 02:47:27;;;;;;;44.15;22.65;;;9.50;53.90;;;;;;5068705;28;20037;-86
2022/12/15 02:50:24;;;;;;;48.05;23.55;;;9.40;54.30;;;;;;5068564;28;20021;-79
2022/12/15 02:52:58;;;;;;;46.17;23.75;;;9.40;54.30;;;;;;5048031;28;20021;-80
2022/12/15 02:55:46;;;;;;;47.05;23.83;;;9.20;54.70;;;;;;5048668;28;20481;-81
2022/12/15 02:58:24;;;;;;;45.10;22.95;;;9.10;54.80;;;;;;5048397;28;20021;-82
2022/12/15 03:00:57;;;;;;;43.47;23.33;;;9.20;54.60;;;;;;5054884;28;20021;-83
2022/12/15 03:03:25;;;;;;;43.70;24.00;;;9.40;54.40;;;;;;5068172;28;20464;-85
2022/12/15 03:05:53;;;;;;;43.17;24.05;;;9.20;54.70;;;;;;5057970;28;20433;-86
2022/12/15 03:08:22;;;;;;;39.78;23.15;;;9.10;55.10;;;;;;5054849;28;20078;-79
2022/12/15 03:10:53;;;;;;;45.97;24.17;;;9.00;55.10;;;;;;5049499;28;20049;-84
2022/12/15 03:13:19;;;;;;;43.95;23.67;;;8.90;55.30;;;;;;5068409;28;20060;-87
2022/12/15 03:15:45;;;;;;;44.22;24.02;;;8.90;55.40;;;;;;5068419;28;20021;-81
2022/12/15 03:18:11;;;;;;;44.92;22.75;;;9.20;55.00;;;;;;5050848;28;20668;-80
2022/12/15 03:20:36;;;;;;;46.92;24.55;;;9.10;55.10;;;;;;5037667;28;20278;-80
2022/12/15 03:23:02;;;;;;;43.33;24.55;;;9.20;55.10;;;;;;5035974;28;20022;-80
2022/12/15 03:25:28;;;;;;;47.25;23.67;;;9.40;54.60;;;;;;5035672;28;20056;-83
2022/12/15 03:27:54;;;;;;;43.30;23.45;;;9.50;54.30;;;;;;5051510;28;20025;-81
2022/12/15 03:30:20;;;;;;;39.65;22.55;;;9.60;54.50;;;;;;5043091;28;20119;-79
2022/12/15 03:32:46;;;;;;;43.58;24.17;;;9.60;54.40;;;;;;5054527;28;20029;-81
2022/12/15 03:35:12;;;;;;;45.35;23.38;;;9.50;54.50;;;;;;5055412;28;20037;-80
2022/12/15 03:37:38;;;;;;;46.13;23.65;;;9.50;54.60;;;;;;5054148;28;20079;-79
2022/12/15 03:40:05;;;;;;;41.40;22.80;;;9.50;54.60;;;;;;5054139;28;20048;-80
2022/12/15 03:42:49;;;;;;;41.95;23.60;;;9.40;54.60;;;;;;5054640;28;20098;-79
2022/12/15 03:45:20;;;;;;;45.85;23.27;;;9.20;55.10;;;;;;5054281;28;20029;-80
2022/12/15 03:47:47;;;;;;;46.53;23.83;;;8.90;55.70;;;;;;5054383;28;20479;-79
2022/12/15 03:50:15;;;;;;;48.47;24.50;;;8.70;56.50;;;;;;5054225;28;20499;-81
2022/12/15 03:52:41;;;;;;;49.33;23.80;;;9.10;55.70;;;;;;5054931;28;20021;-80
2022/12/15 03:55:08;;;;;;;46.92;24.70;;;9.30;55.40;;;;;;5054825;28;20056;-81
2022/12/15 03:57:34;;;;;;;49.55;24.55;;;9.40;55.10;;;;;;5054002;28;20021;-81
2022/12/15 04:00:00;;;;;;;48.55;24.52;;;9.50;54.70;;;;;;5054002;28;20025;-81
2022/12/15 04:02:26;;;;;;;48.28;24.25;;;9.60;54.50;;;;;;5054192;28;20017;-83
2022/12/15 04:04:51;;;;;;;43.33;23.73;;;9.70;54.40;;;;;;5052903;28;20051;-85
2022/12/15 04:07:17;;;;;;;48.17;25.02;;;9.60;54.20;;;;;;5055165;28;20036;-83
2022/12/15 04:09:43;;;;;;;44.35;21.58;;;9.70;54.30;;;;;;5055136;28;20021;-81
2022/12/15 04:12:12;;;;;;;49.55;23.30;;;9.70;54.10;;;;;;5052173;28;20047;-81
2022/12/15 04:14:41;;;;;;;45.13;23.13;;;9.60;54.50;;;;;;5053708;28;20499;-82
2022/12/15 04:17:11;;;;;;;55.17;24.23;;;9.70;54.40;;;;;;5045275;28;20044;-80
2022/12/15 04:22:21;;;;;;;45.08;23.60;;;9.60;54.20;;;;;;5038954;28;20507;-85
2022/12/15 05:33:14;;;;;;;80.63;33.53;;;9.60;54.50;;;;;;5053833;28;20032;-83
2022/12/15 05:35:40;;;;;;;77.32;33.40;;;9.50;55.10;;;;;;5053324;28;20029;-80
2022/12/15 05:38:06;;;;;;;82.72;33.83;;;9.20;55.60;;;;;;5052414;28;20064;-85
2022/12/15 05:40:31;;;;;;;77.78;33.47;;;9.20;55.90;;;;;;5052106;28;20029;-81
2022/12/15 05:42:58;;;;;;;82.25;34.15;;;9.30;55.50;;;;;;5053673;28;20032;-77
2022/12/15 05:45:24;;;;;;;66.32;29.25;;;9.50;54.90;;;;;;5052548;28;20025;-79
2022/12/15 05:47:51;;;;;;;69.60;29.65;;;9.70;54.70;;;;;;5051673;28;20045;-83
2022/12/15 05:50:17;;;;;;;60.60;31.10;;;9.80;54.50;;;;;;5051242;28;20388;-79
2022/12/15 05:52:42;;;;;;;86.32;39.00;;;9.80;54.40;;;;;;5051741;28;20021;-80
2022/12/15 05:55:08;;;;;;;109.75;42.95;;;9.70;54.90;;;;;;5052602;28;20158;-79
2022/12/15 05:57:34;;;;;;;58.55;29.25;;;9.90;54.30;;;;;;5052544;28;20018;-80
2022/12/15 06:00:00;;;;;;;60.33;26.67;;;9.80;54.30;;;;;;5052072;28;20075;-80
2022/12/15 06:02:27;;;;;;;55.45;26.00;;;9.70;54.40;;;;;;5057011;28;20523;-78
2022/12/15 06:04:53;;;;;;;62.17;28.38;;;9.70;54.90;;;;;;5052150;28;20067;-80
2022/12/15 06:07:19;;;;;;;59.83;28.30;;;9.80;54.60;;;;;;5051074;28;20053;-83
2022/12/15 06:09:45;;;;;;;49.10;24.85;;;9.90;54.40;;;;;;5053410;28;20032;-79
2022/12/15 06:12:11;;;;;;;57.90;26.95;;;9.80;54.30;;;;;;5060559;28;20067;-82
2022/12/15 06:14:37;;;;;;;61.35;25.77;;;9.70;54.50;;;;;;5052077;28;20029;-79
2022/12/15 06:17:02;;;;;;;58.15;24.83;;;9.60;54.50;;;;;;5057276;28;20017;-79
2022/12/15 06:19:28;;;;;;;56.50;26.02;;;9.60;54.50;;;;;;5051109;28;20033;-80
2022/12/15 06:21:54;;;;;;;74.28;31.55;;;9.50;55.00;;;;;;5046438;28;20040;-80
2022/12/15 06:24:19;;;;;;;74.20;31.50;;;9.60;54.70;;;;;;5050561;28;20040;-80
2022/12/15 06:26:46;;;;;;;73.50;33.13;;;9.80;54.70;;;;;;5051837;28;20032;-80
2022/12/15 06:29:12;;;;;;;65.07;28.88;;;9.80;54.30;;;;;;5050550;28;20093;-80
2022/12/15 06:31:39;;;;;;;62.47;27.95;;;9.60;54.70;;;;;;5052672;28;20525;-80
2022/12/15 06:34:12;;;;;;;58.65;28.00;;;9.50;54.90;;;;;;5050969;28;20063;-79
2022/12/15 06:36:37;;;;;;;61.03;26.83;;;9.40;55.20;;;;;;5044911;28;20116;-79
2022/12/15 06:39:05;;;;;;;56.53;25.65;;;9.40;55.40;;;;;;5039832;28;20116;-78
2022/12/15 06:41:31;;;;;;;57.53;27.20;;;9.10;55.30;;;;;;5034534;28;20117;-79
2022/12/15 06:43:58;;;;;;;64.55;27.38;;;8.70;56.80;;;;;;5037014;28;20075;-82
2022/12/15 06:46:25;;;;;;;60.80;26.40;;;9.00;56.30;;;;;;5054331;28;20388;-79
2022/12/15 06:48:52;;;;;;;66.20;27.88;;;9.30;55.60;;;;;;5055075;28;20029;-85
2022/12/15 06:51:18;;;;;;;60.95;27.63;;;9.30;55.70;;;;;;5056455;28;20032;-80
2022/12/15 06:53:47;;;;;;;58.72;26.67;;;9.60;55.30;;;;;;5052312;28;20048;-80
2022/12/15 06:56:20;;;;;;;110.30;38.70;;;9.60;55.20;;;;;;5053246;28;20026;-80
2022/12/15 06:58:51;;;;;;;80.93;34.08;;;9.40;55.20;;;;;;5054132;28;20111;-80
2022/12/15 07:01:18;;;;;;;69.25;34.70;;;9.00;56.00;;;;;;5060334;28;20033;-80
2022/12/15 07:03:45;;;;;;;62.83;27.52;;;8.70;56.70;;;;;;5053608;28;20040;-80
2022/12/15 07:06:12;;;;;;;64.15;27.35;;;8.80;57.00;;;;;;5069910;28;20021;-80
2022/12/15 07:08:39;;;;;;;55.72;25.75;;;8.90;56.60;;;;;;5055625;28;20400;-81
2022/12/15 07:11:06;;;;;;;57.42;24.65;;;9.10;56.00;;;;;;5054462;28;20480;-80
2022/12/15 07:13:32;;;;;;;55.10;23.30;;;9.30;55.60;;;;;;5054620;28;20040;-80
2022/12/15 07:15:59;;;;;;;58.28;24.60;;;9.60;55.40;;;;;;5071966;28;20021;-80
2022/12/15 07:18:25;;;;;;;63.95;24.90;;;9.80;54.70;;;;;;5075465;28;20052;-80
2022/12/15 07:20:50;;;;;;;73.75;27.00;;;9.90;54.90;;;;;;5074403;28;20507;-81
2022/12/15 07:23:16;;;;;;;79.10;27.88;;;9.80;54.80;;;;;;5068587;28;20033;-81
2022/12/15 07:25:42;;;;;;;55.03;24.77;;;9.70;55.00;;;;;;5053805;28;20029;-79
2022/12/15 07:28:08;;;;;;;52.88;22.00;;;9.80;54.80;;;;;;5041187;28;20395;-80
2022/12/15 07:30:35;;;;;;;54.97;23.90;;;9.70;55.10;;;;;;5053708;28;20064;-83
2022/12/15 07:33:01;;;;;;;53.75;23.02;;;9.90;54.80;;;;;;5055640;28;20021;-81
2022/12/15 07:35:26;;;;;;;62.50;24.42;;;10.00;54.80;;;;;;5053334;28;20032;-81
2022/12/15 07:37:52;;;;;;;51.17;23.10;;;10.00;54.50;;;;;;5052415;28;20021;-82
2022/12/15 07:40:18;;;;;;;51.10;23.88;;;9.90;54.80;;;;;;5055991;28;20078;-79
2022/12/15 07:42:44;;;;;;;63.28;24.90;;;9.90;55.30;;;;;;5053829;28;20067;-79
2022/12/15 07:45:10;;;;;;;58.45;25.45;;;9.90;54.90;;;;;;5052453;28;20036;-80
2022/12/15 07:47:35;;;;;;;53.17;24.17;;;9.90;55.30;;;;;;5053548;28;20035;-79
2022/12/15 07:50:02;;;;;;;54.00;24.60;;;10.00;54.70;;;;;;5055680;28;20013;-80
2022/12/15 07:52:28;;;;;;;55.58;24.25;;;10.00;54.70;;;;;;5053542;28;20032;-79
2022/12/15 07:54:54;;;;;;;59.65;25.27;;;10.20;54.50;;;;;;5053157;28;20045;-80
2022/12/15 07:57:20;;;;;;;76.00;27.10;;;10.20;53.90;;;;;;5053586;28;20380;-80
2022/12/15 07:59:46;;;;;;;85.85;32.08;;;10.30;54.20;;;;;;5053816;28;20128;-80
2022/12/15 08:02:12;;;;;;;80.75;29.02;;;10.20;54.10;;;;;;5052602;28;20032;-80
2022/12/15 08:04:39;;;;;;;82.10;29.77;;;10.00;54.50;;;;;;5053431;28;20376;-80
2022/12/15 08:07:05;;;;;;;59.45;26.13;;;10.00;54.70;;;;;;5052488;28;20040;-80
2022/12/15 08:09:31;;;;;;;62.50;27.50;;;10.00;55.10;;;;;;5052346;28;20020;-79
2022/12/15 08:11:57;;;;;;;72.20;28.73;;;9.70;55.30;;;;;;5052216;28;20029;-79
2022/12/15 08:14:23;;;;;;;64.05;28.95;;;9.80;55.60;;;;;;5051858;28;20064;-80
2022/12/15 08:16:48;;;;;;;60.88;27.00;;;10.00;55.40;;;;;;5052541;28;20428;-79
2022/12/15 08:19:15;;;;;;;60.00;26.25;;;10.30;54.30;;;;;;5052998;28;20027;-79
2022/12/15 08:21:44;;;;;;;51.58;24.00;;;10.60;54.20;;;;;;5052985;28;20025;-79
2022/12/15 08:24:10;;;;;;;52.20;23.00;;;10.60;54.10;;;;;;5052525;28;20036;-79
2022/12/15 08:26:37;;;;;;;52.45;24.08;;;10.80;53.80;;;;;;5053073;28;20417;-79
2022/12/15 08:29:09;;;;;;;51.88;24.23;;;10.90;53.60;;;;;;5052715;28;20029;-79
2022/12/15 08:31:35;;;;;;;54.95;25.35;;;10.80;53.30;;;;;;5053961;28;20369;-79
2022/12/15 08:34:02;;;;;;;66.22;27.70;;;10.60;53.90;;;;;;5052287;28;20506;-79
2022/12/15 08:36:28;;;;;;;63.97;28.80;;;10.80;53.70;;;;;;5052719;28;20462;-79
2022/12/15 08:38:56;;;;;;;57.72;27.33;;;10.80;53.50;;;;;;5052219;28;20035;-79
2022/12/15 08:41:25;;;;;;;62.40;26.95;;;10.60;53.80;;;;;;5052744;28;20112;-79
2022/12/15 08:43:52;;;;;;;57.13;26.25;;;10.50;54.00;;;;;;5052682;28;20029;-79
2022/12/15 08:46:23;;;;;;;49.28;25.13;;;10.30;54.30;;;;;;5053751;28;20021;-79
2022/12/15 08:48:49;;;;;;;56.33;27.52;;;10.00;55.30;;;;;;5052145;28;20468;-80
2022/12/15 08:51:15;;;;;;;54.95;24.23;;;10.00;55.40;;;;;;5053780;28;20506;-79
2022/12/15 08:53:41;;;;;;;57.03;26.30;;;10.00;55.40;;;;;;5051970;28;20056;-80
2022/12/15 08:56:14;;;;;;;58.80;25.45;;;10.00;55.30;;;;;;5052419;28;20029;-79
2022/12/15 08:58:40;;;;;;;58.15;29.75;;;9.70;55.70;;;;;;5052383;28;20067;-80
2022/12/15 09:01:12;;;;;;;62.85;29.15;;;9.70;55.90;;;;;;5052048;28;20451;-79
2022/12/15 09:03:37;;;;;;;57.92;27.60;;;9.90;55.80;;;;;;5051613;28;20036;-80
2022/12/15 09:06:04;;;;;;;71.68;32.88;;;9.90;55.40;;;;;;5052181;28;20029;-80
2022/12/15 09:08:31;;;;;;;59.97;29.27;;;10.00;55.40;;;;;;5051692;28;20387;-80
2022/12/15 09:11:01;;;;;;;86.80;37.95;;;9.70;55.80;;;;;;5052087;28;20039;-79
2022/12/15 09:13:27;;;;;;;64.40;30.60;;;9.70;56.40;;;;;;5053137;28;20048;-79
2022/12/15 09:16:19;;;;;;;73.85;32.13;;;10.10;55.90;;;;;;5053068;28;20032;-79
2022/12/15 09:18:56;;;;;;;77.45;34.28;;;10.30;55.20;;;;;;5050660;28;20037;-80
2022/12/15 09:21:25;;;;;;;71.43;31.38;;;10.40;55.20;;;;;;5051920;28;20122;-79
2022/12/15 09:23:52;;;;;;;77.95;34.63;;;10.40;54.80;;;;;;5052045;28;20021;-79
2022/12/15 09:26:20;;;;;;;61.53;29.88;;;10.10;55.70;;;;;;5052885;28;20110;-79
2022/12/15 09:28:47;;;;;;;68.72;29.67;;;10.00;55.80;;;;;;5051375;28;20025;-79
2022/12/15 09:31:20;;;;;;;58.78;26.70;;;9.70;57.10;;;;;;5053147;28;20472;-79
2022/12/15 09:33:47;;;;;;;70.18;31.88;;;9.80;56.60;;;;;;5051476;28;20036;-79
2022/12/15 09:36:13;;;;;;;63.45;27.15;;;9.90;56.80;;;;;;5051840;28;20526;-79
2022/12/15 09:38:40;;;;;;;62.05;27.52;;;9.90;57.20;;;;;;5053000;28;20158;-79
2022/12/15 09:41:13;;;;;;;64.25;28.05;;;10.00;56.60;;;;;;5051523;28;20064;-79
2022/12/15 09:44:02;;;;;;;59.47;26.77;;;10.10;56.10;;;;;;5052983;28;20379;-79
2022/12/15 09:47:05;;;;;;;65.45;28.33;;;10.00;56.70;;;;;;5053075;28;20024;-80
2022/12/15 09:49:52;;;;;;;47.42;23.10;;;9.80;56.70;;;;;;5052740;28;20487;-80
2022/12/15 09:52:25;;;;;;;54.58;24.73;;;9.30;57.70;;;;;;5051826;28;20108;-80
2022/12/15 09:54:51;;;;;;;59.67;26.30;;;8.90;58.80;;;;;;5052357;28;20045;-80
2022/12/15 09:57:45;;;;;;;66.43;29.98;;;9.20;58.80;;;;;;5052118;28;20032;-81
2022/12/15 10:00:40;;;;;;;60.47;29.15;;;9.80;57.70;;;;;;5052962;28;20029;-80
2022/12/15 10:03:31;;;;;;;57.85;24.45;;;10.00;57.00;;;;;;5050813;28;20069;-80
2022/12/15 10:06:20;;;;;;;57.88;27.13;;;10.30;56.90;;;;;;5051187;28;20573;-81
2022/12/15 10:08:51;;;;;;;57.63;26.85;;;10.60;56.10;;;;;;5050965;28;20033;-82
2022/12/15 10:11:55;;;;;;;64.05;30.38;;;11.00;55.20;;;;;;5051083;28;20028;-80
2022/12/15 10:14:30;;;;;;;59.65;29.02;;;11.20;54.90;;;;;;4991762;28;20515;-82
2022/12/15 10:17:26;;;;;;;56.90;27.02;;;11.20;54.90;;;;;;4979061;28;20027;-83
2022/12/15 10:20:00;;;;;;;57.45;28.67;;;11.40;54.50;;;;;;4978344;28;20121;-82
2022/12/15 10:22:31;;;;;;;54.55;25.42;;;11.30;54.70;;;;;;4979452;28;20113;-82
2022/12/15 10:25:01;;;;;;;52.20;27.27;;;11.30;54.80;;;;;;4995669;28;20063;-82
2022/12/15 10:27:46;;;;;;;63.63;27.35;;;11.20;54.60;;;;;;4995699;28;20050;-82
2022/12/15 10:30:14;;;;;;;50.72;26.70;;;11.10;55.10;;;;;;4995740;28;20039;-83
2022/12/15 10:32:58;;;;;;;55.58;27.55;;;10.80;55.50;;;;;;4978879;28;20085;-82
2022/12/15 10:35:35;;;;;;;54.90;26.30;;;10.60;56.20;;;;;;4995622;28;20402;-83
2022/12/15 10:38:11;;;;;;;59.40;27.60;;;10.90;56.10;;;;;;4995329;28;20533;-82
2022/12/15 10:40:59;;;;;;;53.25;26.63;;;10.90;55.70;;;;;;4995023;28;20099;-82
2022/12/15 10:43:34;;;;;;;57.42;26.67;;;11.10;55.60;;;;;;5014992;28;20029;-82
2022/12/15 10:46:23;;;;;;;55.10;25.95;;;11.20;55.70;;;;;;5049994;28;20029;-82
2022/12/15 10:48:56;;;;;;;58.38;25.30;;;11.80;54.40;;;;;;5056626;28;20032;-81
2022/12/15 10:51:36;;;;;;;62.90;27.27;;;11.40;55.00;;;;;;5055307;28;20051;-82
2022/12/15 10:54:05;;;;;;;55.88;25.83;;;11.20;55.50;;;;;;5054944;28;20052;-82
2022/12/15 10:56:32;;;;;;;53.60;26.67;;;11.20;55.50;;;;;;5055141;28;20025;-81
2022/12/15 10:59:20;;;;;;;47.45;24.30;;;11.20;55.30;;;;;;5056239;28;20353;-81
2022/12/15 11:01:45;;;;;;;51.80;24.08;;;10.80;55.90;;;;;;5054868;28;20070;-82
2022/12/15 11:04:37;;;;;;;61.45;29.25;;;9.40;59.10;;;;;;5054849;28;20033;-81
2022/12/15 11:07:03;;;;;;;52.80;25.38;;;8.10;62.00;;;;;;5053676;28;20041;-82
2022/12/15 11:09:33;;;;;;;53.65;26.38;;;8.00;63.20;;;;;;5055921;28;20043;-82
2022/12/15 11:14:50;;;;;;;50.75;25.83;;;8.90;61.00;;;;;;5055889;28;20087;-82
2022/12/15 11:17:21;;;;;;;52.80;25.27;;;9.30;60.10;;;;;;5055829;28;20472;-82
2022/12/15 11:19:46;;;;;;;52.58;25.55;;;9.90;58.70;;;;;;5054710;28;20124;-81
2022/12/15 11:22:39;;;;;;;52.17;24.52;;;10.00;58.20;;;;;;5055660;28;20115;-81
2022/12/15 11:25:23;;;;;;;48.38;23.27;;;9.50;59.00;;;;;;5054495;28;20021;-82
2022/12/15 11:27:54;;;;;;;42.30;22.20;;;9.40;59.50;;;;;;5054441;28;20017;-81
2022/12/15 11:30:23;;;;;;;47.75;23.65;;;9.70;59.10;;;;;;5055741;28;20379;-82
2022/12/15 11:32:59;;;;;;;45.58;23.48;;;10.20;58.20;;;;;;5054294;28;20033;-81
2022/12/15 11:36:06;;;;;;;50.10;25.23;;;10.10;58.00;;;;;;5054476;28;20036;-81
2022/12/15 11:38:51;;;;;;;49.38;24.10;;;10.20;57.80;;;;;;5054304;28;20040;-81
2022/12/15 11:41:46;;;;;;;48.42;24.45;;;10.50;56.60;;;;;;5054247;28;20487;-81
2022/12/15 11:44:12;;;;;;;54.35;25.58;;;10.20;57.50;;;;;;5052720;28;20129;-81
2022/12/15 11:47:01;;;;;;;51.92;27.55;;;10.20;57.30;;;;;;5036469;28;20119;-80
2022/12/15 11:50:13;;;;;;;54.83;26.15;;;10.10;58.10;;;;;;5036444;28;20037;-80
2022/12/15 11:52:45;;;;;;;54.15;27.85;;;10.60;57.00;;;;;;4993675;28;20038;-80
2022/12/15 11:55:35;;;;;;;55.95;25.85;;;10.60;56.70;;;;;;4993586;28;20133;-80
2022/12/15 11:58:26;;;;;;;70.55;41.95;;;9.80;58.70;;;;;;4993496;28;20049;-80
2022/12/15 12:01:07;;;;;;;57.88;26.60;;;9.00;60.00;;;;;;4993709;28;20034;-80
2022/12/15 12:03:50;;;;;;;61.50;28.65;;;9.10;60.40;;;;;;4977439;28;20023;-81
2022/12/15 12:06:32;;;;;;;64.00;30.58;;;9.20;60.00;;;;;;4993334;28;20038;-80
2022/12/15 12:09:27;;;;;;;63.90;30.70;;;9.40;59.60;;;;;;4993435;28;20038;-80
2022/12/15 12:12:03;;;;;;;65.00;29.63;;;9.30;60.40;;;;;;4977115;28;20482;-80
2022/12/15 12:14:52;;;;;;;61.92;29.20;;;9.50;59.80;;;;;;4977092;28;20549;-80
2022/12/15 12:17:29;;;;;;;67.88;31.38;;;9.90;59.30;;;;;;4993375;28;20030;-81
2022/12/15 12:20:00;;;;;;;67.90;31.30;;;10.20;58.10;;;;;;4993008;28;20035;-80
2022/12/15 12:22:36;;;;;;;74.93;33.03;;;10.60;57.80;;;;;;5012795;28;20037;-81
2022/12/15 12:25:11;;;;;;;70.78;29.83;;;10.60;57.70;;;;;;5012560;28;20109;-80
2022/12/15 12:27:56;;;;;;;77.32;33.92;;;10.60;57.30;;;;;;5026590;28;20069;-80
2022/12/15 12:30:26;;;;;;;77.40;34.78;;;10.60;57.50;;;;;;5054195;28;20116;-81
2022/12/15 12:33:07;;;;;;;113.97;47.92;;;10.60;57.50;;;;;;5053306;28;20025;-81
2022/12/15 12:35:41;;;;;;;109.57;46.78;;;10.70;57.30;;;;;;5054253;28;20029;-80
2022/12/15 12:38:10;;;;;;;127.15;54.47;;;10.60;57.70;;;;;;5053123;28;20081;-81
2022/12/15 12:40:39;;;;;;;92.63;40.77;;;10.30;58.60;;;;;;5054019;28;20021;-81
2022/12/15 12:43:32;;;;;;;88.75;40.03;;;10.40;58.40;;;;;;5052735;28;20302;-81
2022/12/15 12:46:06;;;;;;;78.57;35.75;;;10.70;57.90;;;;;;5053966;28;20159;-80
2022/12/15 12:48:57;;;;;;;93.05;40.63;;;11.20;56.50;;;;;;5046165;28;20124;-80
2022/12/15 12:51:34;;;;;;;95.55;40.45;;;11.40;56.60;;;;;;5052670;28;20017;-81
2022/12/15 12:54:00;;;;;;;83.60;36.35;;;11.70;56.00;;;;;;5052560;28;20064;-80
2022/12/15 12:56:33;;;;;;;72.80;34.58;;;11.80;55.70;;;;;;5053842;28;20104;-81
2022/12/15 12:59:00;;;;;;;72.47;34.15;;;12.00;55.00;;;;;;5052393;28;20028;-80
2022/12/15 13:01:33;;;;;;;74.35;34.88;;;11.90;55.10;;;;;;5053719;28;20464;-81
2022/12/15 13:04:11;;;;;;;78.88;35.88;;;12.00;55.30;;;;;;5052415;28;20494;-80
2022/12/15 13:06:40;;;;;;;70.03;34.25;;;12.20;55.00;;;;;;5052506;28;20575;-80
2022/12/15 13:09:20;;;;;;;74.15;35.22;;;12.10;54.60;;;;;;5053552;28;20029;-81
2022/12/15 13:11:52;;;;;;;71.93;33.13;;;11.90;55.00;;;;;;5052205;28;20056;-80
2022/12/15 13:14:22;;;;;;;70.43;33.38;;;11.80;55.20;;;;;;5052193;28;20033;-81
2022/12/15 13:16:49;;;;;;;76.57;35.28;;;11.80;55.10;;;;;;5053220;28;20036;-80
2022/12/15 13:19:53;;;;;;;74.97;33.72;;;11.90;55.40;;;;;;5051974;28;20029;-80
2022/12/15 13:22:26;;;;;;;73.03;31.83;;;11.90;55.10;;;;;;5053285;28;20119;-80
2022/12/15 13:24:55;;;;;;;70.22;33.85;;;12.10;55.00;;;;;;5052143;28;20093;-80
2022/12/15 13:27:22;;;;;;;71.97;33.05;;;12.20;54.40;;;;;;5052017;28;20035;-80
2022/12/15 13:29:57;;;;;;;70.00;32.00;;;12.10;54.80;;;;;;5051880;28;20025;-80
2022/12/15 13:32:38;;;;;;;70.40;34.90;;;12.20;54.80;;;;;;5051791;28;20025;-79
2022/12/15 13:35:13;;;;;;;99.53;44.80;;;12.20;54.60;;;;;;5053005;28;20076;-80
2022/12/15 13:38:02;;;;;;;76.55;35.20;;;12.10;54.90;;;;;;5051762;28;20492;-80
2022/12/15 13:40:32;;;;;;;63.83;32.60;;;12.30;54.30;;;;;;5051670;28;20447;-81
2022/12/15 13:43:04;;;;;;;74.60;36.28;;;12.00;54.90;;;;;;5051385;28;20040;-80
2022/12/15 13:45:30;;;;;;;65.45;32.45;;;12.10;55.30;;;;;;5052919;28;20020;-80
2022/12/15 13:47:56;;;;;;;79.63;33.47;;;12.20;54.60;;;;;;5051680;28;20370;-81
2022/12/15 13:50:35;;;;;;;74.90;33.00;;;12.30;54.70;;;;;;5052783;28;20385;-81
2022/12/15 13:53:03;;;;;;;76.20;34.90;;;12.20;55.20;;;;;;5051806;28;20032;-81
2022/12/15 13:55:45;;;;;;;77.57;35.35;;;12.00;55.10;;;;;;5051792;28;20036;-81
2022/12/15 13:58:14;;;;;;;73.97;33.90;;;11.80;55.50;;;;;;5051899;28;20025;-81
2022/12/15 14:00:51;;;;;;;68.65;32.17;;;11.80;55.90;;;;;;5053099;28;20353;-81
2022/12/15 14:03:17;;;;;;;75.97;33.08;;;11.80;55.60;;;;;;5051751;28;20029;-81
2022/12/15 14:05:56;;;;;;;71.85;34.22;;;11.80;55.40;;;;;;5052070;28;20611;-79
2022/12/15 14:08:24;;;;;;;79.93;32.55;;;11.70;55.70;;;;;;5051547;28;20036;-81
2022/12/15 14:10:52;;;;;;;72.13;33.17;;;11.50;56.00;;;;;;5053064;28;20021;-80
2022/12/15 14:13:30;;;;;;;83.18;39.10;;;11.40;56.40;;;;;;5052296;28;20028;-81
2022/12/15 14:16:13;;;;;;;83.93;37.95;;;11.40;56.00;;;;;;5051684;28;20115;-80
2022/12/15 14:18:41;;;;;;;84.28;35.72;;;11.30;56.60;;;;;;5051476;28;20025;-80
2022/12/15 14:21:22;;;;;;;78.30;34.33;;;11.20;56.50;;;;;;5052444;28;20025;-79
2022/12/15 14:23:48;;;;;;;75.60;33.53;;;11.40;56.40;;;;;;5053123;28;20021;-80
2022/12/15 14:26:15;;;;;;;80.10;35.17;;;11.40;56.00;;;;;;5051435;28;20029;-81
2022/12/15 14:28:45;;;;;;;82.70;35.13;;;11.40;56.10;;;;;;5052918;28;20078;-81
2022/12/15 14:31:16;;;;;;;88.05;38.42;;;11.40;56.30;;;;;;5051427;28;20029;-81
2022/12/15 14:33:43;;;;;;;;;;;11.50;56.30;;;;;;5051685;28;20503;-81
2022/12/15 14:36:11;;;;;;;84.63;35.75;;;11.50;56.10;;;;;;5051398;28;20002;-80
2022/12/15 14:38:46;;;;;;;103.88;43.00;;;11.50;56.40;;;;;;5051536;28;20029;-82
2022/12/15 14:41:28;;;;;;;112.70;42.30;;;11.60;56.00;;;;;;5053076;28;20598;-80
2022/12/15 14:44:13;;;;;;;118.28;43.60;;;11.60;55.70;;;;;;5051364;28;20067;-81
2022/12/15 14:46:39;;;;;;;112.78;42.50;;;11.40;56.30;;;;;;5052588;28;20488;-81
2022/12/15 14:49:07;;;;;;;107.20;44.75;;;11.50;56.10;;;;;;5051519;28;20025;-82
2022/12/15 14:51:43;;;;;;;83.32;40.15;;;11.20;56.80;;;;;;5052114;28;20476;-80
2022/12/15 14:54:36;;;;;;;96.25;43.42;;;10.90;57.20;;;;;;5051084;28;20080;-80
2022/12/15 14:57:13;;;;;;;92.75;38.45;;;10.90;57.90;;;;;;5051306;28;20357;-80
2022/12/15 14:59:44;;;;;;;83.80;37.90;;;11.00;57.70;;;;;;5051113;28;20029;-79
2022/12/15 15:02:11;;;;;;;94.57;40.10;;;11.00;57.40;;;;;;5053267;28;20078;-79
2022/12/15 15:04:37;;;;;;;90.80;39.58;;;11.00;57.30;;;;;;5054561;28;20029;-79
2022/12/15 15:07:21;;;;;;;88.05;40.10;;;11.00;57.30;;;;;;5054633;28;20029;-79
2022/12/15 15:09:47;;;;;;;93.55;39.33;;;10.90;57.50;;;;;;5054526;28;20025;-81
2022/12/15 15:12:19;;;;;;;120.95;44.33;;;11.00;57.40;;;;;;5055644;28;20112;-79
2022/12/15 15:15:01;;;;;;;134.30;53.70;;;11.20;57.30;;;;;;5055501;28;20480;-80
2022/12/15 15:17:42;;;;;;;132.93;50.00;;;11.30;57.10;;;;;;5055617;28;20025;-79
2022/12/15 15:20:34;;;;;;;129.18;57.28;;;11.20;57.30;;;;;;5053759;28;20534;-79
2022/12/15 15:23:06;;;;;;;127.72;59.10;;;11.00;58.10;;;;;;5055295;28;20076;-79
2022/12/15 15:25:37;;;;;;;122.45;49.22;;;11.20;57.50;;;;;;5054124;28;20488;-79